Time;durP1;ratioP1;P1;durP2;ratioP2;P2;SDS_P1;SDS_P2;PMS_P1;PMS_P2;Temp;Humidity;BMP_temperature;BMP_pressure;BME280_temperature;BME280_humidity;BME280_pressure;Samples;Min_cycle;Max_cycle;Signal;HPM_P1;HPM_P2
2022/10/13 00:01:30;;;;;;;25.93;14.10;;;;;;;;;;5059902;28;20758;-73
2022/10/13 00:03:57;;;;;;;25.33;14.73;;;;;;;;;;5075506;28;20429;-73
2022/10/13 00:06:24;;;;;;;27.55;15.07;;;10.40;99.90;;;;;;5092318;28;20909;-73
2022/10/13 00:08:50;;;;;;;26.25;14.88;;;;;;;;;;5072664;28;20423;-73
2022/10/13 00:11:24;;;;;;;24.23;15.30;;;;;;;;;;5057960;28;20410;-74
2022/10/13 00:13:51;;;;;;;26.10;15.38;;;;;;;;;;5075112;28;20422;-73
2022/10/13 00:16:19;;;;;;;28.42;15.27;;;10.40;99.90;;;;;;5073916;28;20447;-73
2022/10/13 00:18:45;;;;;;;27.13;16.07;;;;;;;;;;5092481;28;20452;-73
2022/10/13 00:21:13;;;;;;;31.30;16.17;;;;;;;;;;5075231;28;20417;-73
2022/10/13 00:23:40;;;;;;;28.20;15.40;;;;;;;;;;5074846;28;20430;-72
2022/10/13 00:26:08;;;;;;;28.43;16.20;;;10.30;99.90;;;;;;5077417;28;20771;-73
2022/10/13 00:28:35;;;;;;;30.02;16.52;;;;;;;;;;5072624;28;20421;-73
2022/10/13 00:31:01;;;;;;;29.30;16.13;;;;;;;;;;5074876;28;20414;-73
2022/10/13 00:33:27;;;;;;;30.60;16.00;;;;;;;;;;5091648;28;20769;-74
2022/10/13 00:35:53;;;;;;;29.20;16.67;;;;;;;;;;5058264;28;20485;-74
2022/10/13 00:38:22;;;;;;;30.23;16.50;;;;;;;;;;5074116;28;20418;-74
2022/10/13 00:40:48;;;;;;;27.05;16.90;;;;;;;;;;5055843;28;20425;-74
2022/10/13 00:43:17;;;;;;;29.30;16.70;;;10.60;99.90;;;;;;5074703;28;20438;-74
2022/10/13 00:45:44;;;;;;;27.98;16.63;;;;;;;;;;5075416;28;20414;-72
2022/10/13 00:48:10;;;;;;;28.20;16.67;;;10.30;99.90;;;;;;5058558;28;20422;-73
2022/10/13 00:50:39;;;;;;;31.87;16.87;;;10.30;99.90;;;;;;5073309;28;20422;-73
2022/10/13 00:53:06;;;;;;;29.40;16.77;;;;;;;;;;5074571;28;20836;-74
2022/10/13 00:55:33;;;;;;;29.00;16.45;;;;;;;;;;5074815;28;20414;-74
2022/10/13 00:58:02;;;;;;;29.55;16.55;;;;;;;;;;5074661;28;20937;-74
2022/10/13 01:00:29;;;;;;;31.23;17.20;;;;;;;;;;5073515;28;20841;-74
2022/10/13 01:02:54;;;;;;;28.48;15.82;;;10.70;99.90;;;;;;5074296;28;20430;-72
2022/10/13 01:05:21;;;;;;;30.17;16.77;;;;;;;;;;5076104;28;20429;-72
2022/10/13 01:07:51;;;;;;;26.40;16.40;;;;;;;;;;5073374;28;20988;-74
2022/10/13 01:10:27;;;;;;;31.60;17.08;;;10.40;99.90;;;;;;5073189;28;20413;-74
2022/10/13 01:12:59;;;;;;;26.27;16.23;;;;;;;;;;5075012;28;20405;-74
2022/10/13 01:15:40;;;;;;;28.77;16.97;;;;;;;;;;5074419;28;20417;-74
2022/10/13 01:18:15;;;;;;;27.80;15.95;;;;;;;;;;5071906;28;20426;-74
2022/10/13 01:21:18;;;;;;;26.15;16.27;;;10.10;99.90;;;;;;5072620;28;20429;-74
2022/10/13 01:23:47;;;;;;;31.67;16.55;;;;;;;;;;5060083;28;20504;-74
2022/10/13 01:26:31;;;;;;;25.48;16.08;;;10.30;99.90;;;;;;5073592;28;20433;-74
2022/10/13 01:29:04;;;;;;;30.20;15.93;;;;;;;;;;5072761;28;20449;-74
2022/10/13 01:31:40;;;;;;;28.52;16.40;;;10.30;99.90;;;;;;5073785;28;20511;-74
2022/10/13 01:34:09;;;;;;;27.10;16.15;;;;;;;;;;5108484;28;20401;-74
2022/10/13 01:36:59;;;;;;;30.55;17.42;;;10.30;99.90;;;;;;5089587;28;20454;-74
2022/10/13 01:39:39;;;;;;;27.42;16.38;;;10.20;99.90;;;;;;5073796;28;20413;-73
2022/10/13 01:42:13;;;;;;;28.05;17.00;;;10.20;99.90;;;;;;5107808;28;20414;-73
2022/10/13 01:44:46;;;;;;;27.58;16.45;;;10.20;99.90;;;;;;5072759;28;20431;-73
2022/10/13 01:47:14;;;;;;;27.97;16.63;;;10.20;99.90;;;;;;5074369;28;20886;-73
2022/10/13 01:49:40;;;;;;;31.35;16.58;;;;;;;;;;5091508;28;20401;-73
2022/10/13 01:52:08;;;;;;;32.08;16.52;;;;;;;;;;5071688;28;20492;-74
2022/10/13 01:54:34;;;;;;;28.33;15.93;;;;;;;;;;5071633;28;20421;-74
2022/10/13 01:57:00;;;;;;;29.98;16.73;;;;;;;;;;5073077;28;20429;-73
2022/10/13 01:59:27;;;;;;;30.05;17.05;;;;;;;;;;5073172;28;20428;-73
2022/10/13 02:02:20;;;;;;;29.27;16.30;;;10.20;99.90;;;;;;5073546;28;20418;-74
2022/10/13 02:05:04;;;;;;;29.23;16.97;;;10.10;99.90;;;;;;5056626;28;20506;-73
2022/10/13 02:07:45;;;;;;;29.97;16.87;;;10.20;99.90;;;;;;5073742;28;20448;-73
2022/10/13 02:10:21;;;;;;;28.75;16.52;;;10.20;99.90;;;;;;5070628;28;20424;-73
2022/10/13 02:13:08;;;;;;;29.50;16.85;;;10.20;99.90;;;;;;5073534;28;20398;-73
2022/10/13 02:15:42;;;;;;;28.65;16.55;;;10.20;99.90;;;;;;5074396;28;20440;-73
2022/10/13 02:18:11;;;;;;;32.20;16.90;;;10.20;99.90;;;;;;5073081;28;20431;-73
2022/10/13 02:20:37;;;;;;;28.40;17.47;;;;;;;;;;5105818;28;20438;-73
2022/10/13 02:23:09;;;;;;;34.10;17.10;;;10.20;99.90;;;;;;5073702;28;20405;-73
2022/10/13 02:25:36;;;;;;;28.75;16.60;;;;;;;;;;5069474;28;20429;-73
2022/10/13 02:28:05;;;;;;;30.80;17.52;;;10.00;99.90;;;;;;5088805;28;20421;-73
2022/10/13 02:30:32;;;;;;;28.33;16.58;;;;;;;;;;5056438;28;20753;-72
2022/10/13 02:32:58;;;;;;;29.75;16.83;;;;;;;;;;5091234;28;20417;-73
2022/10/13 02:35:24;;;;;;;31.60;17.20;;;;;;;;;;5072736;28;20417;-73
2022/10/13 02:37:50;;;;;;;30.25;17.27;;;;;;;;;;5072441;28;20456;-73
2022/10/13 02:40:16;;;;;;;33.70;18.60;;;;;;;;;;5071698;28;20550;-74
2022/10/13 02:42:43;;;;;;;29.57;17.53;;;;;;;;;;5071922;28;20422;-74
2022/10/13 02:45:09;;;;;;;31.63;17.70;;;;;;;;;;5072675;28;20422;-73
2022/10/13 02:47:35;;;;;;;34.72;18.55;;;;;;;;;;5073358;28;20904;-74
2022/10/13 02:50:01;;;;;;;32.42;19.25;;;;;;;;;;5056838;28;20424;-74
2022/10/13 02:52:27;;;;;;;32.85;18.75;;;;;;;;;;5070437;28;20517;-73
2022/10/13 02:54:54;;;;;;;44.65;19.60;;;;;;;;;;5053715;28;20452;-73
2022/10/13 02:57:20;;;;;;;33.97;19.77;;;;;;;;;;5072518;28;20426;-73
2022/10/13 02:59:46;;;;;;;28.65;19.08;;;;;;;;;;5073269;28;20411;-74
2022/10/13 03:02:12;;;;;;;37.03;20.13;;;;;;;;;;5070092;28;20581;-73
2022/10/13 03:04:38;;;;;;;33.83;19.83;;;;;;;;;;5072560;28;20922;-73
2022/10/13 03:07:04;;;;;;;35.63;20.63;;;;;;;;;;5073196;28;20831;-73
2022/10/13 03:09:29;;;;;;;36.47;19.77;;;10.10;99.90;;;;;;5056089;28;20414;-73
2022/10/13 03:11:56;;;;;;;36.70;20.90;;;;;;;;;;5090062;28;20816;-74
2022/10/13 03:14:22;;;;;;;34.20;20.48;;;;;;;;;;5072691;28;20425;-74
2022/10/13 03:16:48;;;;;;;33.45;20.35;;;;;;;;;;5056651;28;20406;-73
2022/10/13 03:19:14;;;;;;;41.65;20.10;;;;;;;;;;5090028;28;20401;-74
2022/10/13 03:21:40;;;;;;;32.50;20.00;;;;;;;;;;5070264;28;20984;-74
2022/10/13 03:24:06;;;;;;;36.42;21.67;;;;;;;;;;5093987;28;20421;-74
2022/10/13 03:26:33;;;;;;;36.73;21.63;;;;;;;;;;5076277;28;20418;-75
2022/10/13 03:28:59;;;;;;;34.90;21.20;;;;;;;;;;5076880;28;20410;-74
2022/10/13 03:31:25;;;;;;;35.47;21.27;;;;;;;;;;5075924;28;20494;-75
2022/10/13 03:33:52;;;;;;;38.13;21.60;;;;;;;;;;5074485;28;20505;-74
2022/10/13 03:36:18;;;;;;;38.58;21.65;;;;;;;;;;5075178;28;20429;-75
2022/10/13 03:38:44;;;;;;;36.10;20.98;;;;;;;;;;5043129;28;20509;-75
2022/10/13 03:41:12;;;;;;;32.73;21.13;;;10.20;99.90;;;;;;5075402;28;20510;-75
2022/10/13 03:43:39;;;;;;;37.97;21.88;;;10.20;99.90;;;;;;5109479;28;20575;-75
2022/10/13 03:46:07;;;;;;;39.38;22.30;;;10.10;99.90;;;;;;5092680;28;20429;-75
2022/10/13 03:48:34;;;;;;;40.30;21.30;;;;;;;;;;5060283;28;20720;-75
2022/10/13 03:51:04;;;;;;;35.92;21.80;;;;;;;;;;5073816;28;20418;-74
2022/10/13 03:53:30;;;;;;;36.35;21.90;;;;;;;;;;5058552;28;20612;-75
2022/10/13 03:55:57;;;;;;;36.73;22.93;;;;;;;;;;5075915;28;20422;-75
2022/10/13 03:58:23;;;;;;;39.00;22.88;;;;;;;;;;5076413;28;20911;-75
2022/10/13 04:00:50;;;;;;;39.67;22.80;;;;;;;;;;5076687;28;20428;-75
2022/10/13 04:03:16;;;;;;;37.47;23.33;;;;;;;;;;5075389;28;20909;-75
2022/10/13 04:05:42;;;;;;;43.67;24.02;;;;;;;;;;5092825;28;20445;-75
2022/10/13 04:08:09;;;;;;;42.65;24.25;;;;;;;;;;5075497;28;22320;-75
2022/10/13 04:10:35;;;;;;;43.53;23.95;;;;;;;;;;5092209;28;20425;-75
2022/10/13 04:13:01;;;;;;;46.47;24.45;;;;;;;;;;5087261;28;20929;-75
2022/10/13 04:15:27;;;;;;;44.75;24.88;;;;;;;;;;5074093;28;20421;-75
2022/10/13 04:17:53;;;;;;;40.90;24.80;;;;;;;;;;5059533;28;20405;-74
2022/10/13 04:20:19;;;;;;;43.10;26.47;;;;;;;;;;5073340;28;20426;-75
2022/10/13 04:22:45;;;;;;;41.65;24.75;;;;;;;;;;5091734;28;20421;-75
2022/10/13 04:25:11;;;;;;;41.28;24.88;;;;;;;;;;5089699;28;20418;-74
2022/10/13 04:27:38;;;;;;;45.83;26.17;;;;;;;;;;5107993;28;20429;-74
2022/10/13 04:30:05;;;;;;;43.97;25.67;;;;;;;;;;5075588;28;20551;-74
2022/10/13 04:32:31;;;;;;;46.53;25.63;;;;;;;;;;5056577;28;20418;-74
2022/10/13 04:34:58;;;;;;;55.53;27.83;;;;;;;;;;5051158;28;20410;-74
2022/10/13 04:37:24;;;;;;;47.95;27.63;;;;;;;;;;5074633;28;20475;-73
2022/10/13 04:39:50;;;;;;;47.58;26.65;;;;;;;;;;5056392;28;20424;-73
2022/10/13 04:42:16;;;;;;;49.38;28.35;;;;;;;;;;5073244;28;20422;-74
2022/10/13 04:44:42;;;;;;;49.00;26.67;;;;;;;;;;5069330;28;20461;-74
2022/10/13 04:47:08;;;;;;;48.13;27.38;;;;;;;;;;5072049;28;20476;-74
2022/10/13 04:49:34;;;;;;;50.72;29.75;;;;;;;;;;5054818;28;20469;-74
2022/10/13 04:52:00;;;;;;;50.90;28.05;;;;;;;;;;5071881;28;20459;-75
2022/10/13 04:54:26;;;;;;;45.38;27.45;;;;;;;;;;5068287;28;20489;-75
2022/10/13 04:56:52;;;;;;;48.20;27.67;;;;;;;;;;5055324;28;20486;-77
2022/10/13 04:59:18;;;;;;;46.07;27.47;;;;;;;;;;5070074;28;20957;-76
2022/10/13 05:01:46;;;;;;;52.35;28.38;;;;;;;;;;5070897;28;20420;-75
2022/10/13 05:04:12;;;;;;;50.42;29.35;;;;;;;;;;5069861;28;20481;-76
2022/10/13 05:06:40;;;;;;;48.35;29.00;;;;;;;;;;5070974;28;20415;-75
2022/10/13 05:09:06;;;;;;;52.55;29.27;;;;;;;;;;5069652;28;20425;-75
2022/10/13 05:11:32;;;;;;;50.25;30.33;;;;;;;;;;5070713;28;20419;-75
2022/10/13 05:13:58;;;;;;;51.30;30.60;;;;;;;;;;5068650;28;20427;-75
2022/10/13 05:16:25;;;;;;;51.88;30.88;;;;;;;;;;5070927;28;20427;-75
2022/10/13 05:18:52;;;;;;;56.60;30.45;;;;;;;;;;5070893;28;20423;-75
2022/10/13 05:21:23;;;;;;;53.75;30.58;;;10.40;99.90;;;;;;5069391;28;20495;-76
2022/10/13 05:23:53;;;;;;;54.33;32.47;;;;;;;;;;5068105;28;20432;-76
2022/10/13 05:26:19;;;;;;;56.53;32.40;;;10.40;99.90;;;;;;5052583;28;20431;-74
2022/10/13 05:28:45;;;;;;;56.38;33.10;;;;;;;;;;5070730;28;20407;-75
2022/10/13 05:31:12;;;;;;;56.28;33.20;;;;;;;;;;5068041;28;20415;-75
2022/10/13 05:33:38;;;;;;;63.85;34.88;;;;;;;;;;5073228;28;20419;-75
2022/10/13 05:36:08;;;;;;;74.03;35.15;;;;;;;;;;5070980;28;20435;-75
2022/10/13 05:38:34;;;;;;;65.90;35.22;;;;;;;;;;5069634;28;20790;-77
2022/10/13 05:41:08;;;;;;;69.37;39.03;;;;;;;;;;5069817;28;20427;-77
2022/10/13 05:43:35;;;;;;;66.35;37.00;;;;;;;;;;5067372;28;20974;-77
2022/10/13 05:46:02;;;;;;;69.40;37.28;;;;;;;;;;5071780;28;20442;-78
2022/10/13 05:48:28;;;;;;;76.40;39.03;;;;;;;;;;5068675;28;20825;-79
2022/10/13 05:50:56;;;;;;;75.53;39.45;;;;;;;;;;5068796;28;20416;-79
2022/10/13 05:53:24;;;;;;;74.93;39.20;;;;;;;;;;5067381;28;20427;-78
2022/10/13 05:55:50;;;;;;;76.05;39.35;;;;;;;;;;5046784;28;20775;-78
2022/10/13 05:58:17;;;;;;;79.07;41.80;;;;;;;;;;5067780;28;20464;-78
2022/10/13 06:00:43;;;;;;;414.50;61.03;;;;;;;;;;5069625;28;20489;-78
2022/10/13 06:03:09;;;;;;;84.80;41.93;;;;;;;;;;5067783;28;20534;-77
2022/10/13 06:05:35;;;;;;;178.13;47.25;;;;;;;;;;5069550;28;20432;-78
2022/10/13 06:08:01;;;;;;;169.18;47.45;;;;;;;;;;5069774;28;20416;-78
2022/10/13 06:10:28;;;;;;;81.45;41.45;;;;;;;;;;5069740;28;20423;-78
2022/10/13 06:12:54;;;;;;;81.03;41.42;;;;;;;;;;5034108;28;20506;-79
2022/10/13 06:15:20;;;;;;;81.90;43.00;;;;;;;;;;5070264;28;20442;-79
2022/10/13 06:17:46;;;;;;;78.73;42.87;;;;;;;;;;5069231;28;20427;-78
2022/10/13 06:20:12;;;;;;;81.70;42.78;;;;;;;;;;5070981;28;20473;-78
2022/10/13 06:22:38;;;;;;;77.00;42.50;;;;;;;;;;5067592;28;20498;-77
2022/10/13 06:25:05;;;;;;;79.60;41.78;;;;;;;;;;5069909;28;20506;-78
2022/10/13 06:27:32;;;;;;;83.32;41.67;;;;;;;;;;5069029;28;20415;-78
2022/10/13 06:29:58;;;;;;;74.07;40.28;;;;;;;;;;5053752;28;20404;-77
2022/10/13 06:32:24;;;;;;;77.43;39.97;;;;;;;;;;5067985;28;20418;-78
2022/10/13 06:34:50;;;;;;;72.97;41.40;;;;;;;;;;5049940;28;21031;-78
2022/10/13 06:37:16;;;;;;;74.30;41.50;;;;;;;;;;5059954;28;20470;-78
2022/10/13 06:39:42;;;;;;;73.25;39.38;;;;;;;;;;5067823;28;20771;-78
2022/10/13 06:42:08;;;;;;;69.22;38.13;;;;;;;;;;5051360;28;20415;-77
2022/10/13 06:44:34;;;;;;;65.10;39.15;;;;;;;;;;5072704;28;20507;-77
2022/10/13 06:47:02;;;;;;;68.88;37.83;;;;;;;;;;5072337;28;20719;-78
2022/10/13 06:49:28;;;;;;;64.88;38.08;;;;;;;;;;5090296;28;20448;-78
2022/10/13 06:51:54;;;;;;;63.70;36.20;;;;;;;;;;5072485;28;20480;-77
2022/10/13 06:54:20;;;;;;;65.85;37.95;;;;;;;;;;5088873;28;20495;-78
2022/10/13 06:56:46;;;;;;;67.72;37.10;;;;;;;;;;5054808;28;20425;-78
2022/10/13 06:59:12;;;;;;;65.85;38.05;;;;;;;;;;5106204;28;20486;-77
2022/10/13 07:01:39;;;;;;;63.85;35.53;;;;;;;;;;5072323;28;20836;-77
2022/10/13 07:04:05;;;;;;;64.30;36.47;;;;;;;;;;5071249;28;20773;-76
2022/10/13 07:06:31;;;;;;;62.58;36.65;;;;;;;;;;5054020;28;20425;-76
2022/10/13 07:08:57;;;;;;;64.00;36.97;;;;;;;;;;5054937;28;20443;-77
2022/10/13 07:11:23;;;;;;;63.80;35.45;;;;;;;;;;5034910;28;20771;-76
2022/10/13 07:13:49;;;;;;;61.22;34.95;;;;;;;;;;5052889;28;20532;-77
2022/10/13 07:16:15;;;;;;;61.60;36.78;;;;;;;;;;5055380;28;20422;-78
2022/10/13 07:18:42;;;;;;;60.08;34.30;;;;;;;;;;5069162;28;20417;-78
2022/10/13 07:21:08;;;;;;;59.57;36.27;;;;;;;;;;5071473;28;20500;-77
2022/10/13 07:23:34;;;;;;;56.35;34.30;;;;;;;;;;5070406;28;20417;-78
2022/10/13 07:26:00;;;;;;;55.85;33.45;;;;;;;;;;5087723;28;20441;-78
2022/10/13 07:28:26;;;;;;;58.50;33.15;;;;;;;;;;5089583;28;20410;-79
2022/10/13 07:30:52;;;;;;;55.72;33.08;;;;;;;;;;5055218;28;20414;-78
2022/10/13 07:33:19;;;;;;;53.67;32.60;;;;;;;;;;5089406;28;20398;-78
2022/10/13 07:35:45;;;;;;;51.15;31.27;;;;;;;;;;5055243;28;20497;-78
2022/10/13 07:38:12;;;;;;;53.60;32.27;;;;;;;;;;5072263;28;20449;-77
2022/10/13 07:40:38;;;;;;;52.47;32.00;;;;;;;;;;5072318;28;20879;-77
2022/10/13 07:43:04;;;;;;;52.22;31.08;;;11.80;99.90;;;;;;5053682;28;20425;-77
2022/10/13 07:45:30;;;;;;;49.45;30.35;;;;;;;;;;5070400;28;20433;-77
2022/10/13 07:47:56;;;;;;;53.58;31.70;;;;;;;;;;5068654;28;20905;-78
2022/10/13 07:50:22;;;;;;;49.67;30.42;;;;;;;;;;5054476;28;20425;-78
2022/10/13 07:52:48;;;;;;;56.70;31.52;;;;;;;;;;5051108;28;20422;-77
2022/10/13 07:55:15;;;;;;;49.53;30.27;;;;;;;;;;5054299;28;20472;-78
2022/10/13 07:57:41;;;;;;;46.83;31.48;;;;;;;;;;5069707;28;20521;-78
2022/10/13 08:00:08;;;;;;;51.20;31.27;;;;;;;;;;5070561;28;20816;-78
2022/10/13 08:02:34;;;;;;;48.88;30.13;;;;;;;;;;5071440;28;20782;-79
2022/10/13 08:05:02;;;;;;;43.92;28.80;;;;;;;;;;5072380;28;20433;-79
2022/10/13 08:07:30;;;;;;;47.25;29.10;;;;;;;;;;5071173;28;20410;-80
2022/10/13 08:09:56;;;;;;;45.50;28.77;;;12.40;99.90;;;;;;5050516;28;20414;-78
2022/10/13 08:12:22;;;;;;;48.55;30.05;;;12.50;99.90;;;;;;5107801;28;20449;-79
2022/10/13 08:14:51;;;;;;;48.30;28.73;;;;;;;;;;5065219;28;20419;-78
2022/10/13 08:17:18;;;;;;;50.00;30.48;;;;;;;;;;5056589;28;20450;-80
2022/10/13 08:19:44;;;;;;;49.08;30.60;;;;;;;;;;5047773;28;20429;-79
2022/10/13 08:22:11;;;;;;;46.00;29.60;;;;;;;;;;5066893;28;20491;-79
2022/10/13 08:24:37;;;;;;;50.28;30.70;;;;;;;;;;5047707;28;20425;-79
2022/10/13 08:27:03;;;;;;;51.33;31.13;;;;;;;;;;5070383;28;20855;-79
2022/10/13 08:29:29;;;;;;;51.33;32.40;;;;;;;;;;5070398;28;20425;-79
2022/10/13 08:31:55;;;;;;;56.38;32.88;;;;;;;;;;5034778;28;20429;-78
2022/10/13 08:34:22;;;;;;;50.35;31.60;;;;;;;;;;5066860;28;20434;-78
2022/10/13 08:36:51;;;;;;;49.47;30.87;;;;;;;;;;5085874;28;20444;-78
2022/10/13 08:39:17;;;;;;;53.15;31.63;;;;;;;;;;5037519;28;20496;-79
2022/10/13 08:41:44;;;;;;;53.10;32.03;;;;;;;;;;5038224;28;20754;-79
2022/10/13 08:44:19;;;;;;;48.03;30.48;;;;;;;;;;5068114;28;20983;-78
2022/10/13 08:47:01;;;;;;;53.40;32.50;;;12.80;99.90;;;;;;5068541;28;20418;-78
2022/10/13 08:49:27;;;;;;;56.20;32.80;;;;;;;;;;5054591;28;20401;-78
2022/10/13 08:51:54;;;;;;;51.60;32.05;;;;;;;;;;5073799;28;20410;-78
2022/10/13 08:54:21;;;;;;;53.55;32.85;;;;;;;;;;5102570;28;20422;-77
2022/10/13 08:56:49;;;;;;;65.18;36.97;;;;;;;;;;5071936;28;20524;-78
2022/10/13 08:59:17;;;;;;;60.47;36.03;;;;;;;;;;5069847;28;20562;-78
2022/10/13 09:01:50;;;;;;;59.30;35.53;;;12.90;99.90;;;;;;5090246;28;20429;-78
2022/10/13 09:04:32;;;;;;;56.42;34.50;;;;;;;;;;5068514;28;20425;-78
2022/10/13 09:07:02;;;;;;;57.08;34.42;;;;;;;;;;5072555;28;20420;-79
2022/10/13 09:09:28;;;;;;;55.97;34.28;;;;;;;;;;5070338;28;20501;-78
2022/10/13 09:11:54;;;;;;;54.10;33.25;;;;;;;;;;5073364;28;20421;-78
2022/10/13 09:14:21;;;;;;;60.35;33.97;;;;;;;;;;5072486;28;20487;-78
2022/10/13 09:16:48;;;;;;;56.72;34.08;;;13.10;99.90;;;;;;5071947;28;20447;-78
2022/10/13 09:19:17;;;;;;;56.60;34.03;;;;;;;;;;5072481;28;20468;-76
2022/10/13 09:21:43;;;;;;;58.83;33.83;;;;;;;;;;5105438;28;20449;-77
2022/10/13 09:24:17;;;;;;;63.05;38.58;;;;;;;;;;5072664;28;20454;-77
2022/10/13 09:26:44;;;;;;;63.38;37.35;;;;;;;;;;5085139;28;20687;-78
2022/10/13 09:29:19;;;;;;;56.22;34.67;;;13.20;99.90;;;;;;5087481;28;20426;-78
2022/10/13 09:31:45;;;;;;;57.42;34.53;;;;;;;;;;5103517;28;20774;-77
2022/10/13 09:34:22;;;;;;;53.53;33.63;;;;;;;;;;5070373;28;20437;-78
2022/10/13 09:37:03;;;;;;;54.28;33.15;;;13.10;99.90;;;;;;5074161;28;20413;-78
2022/10/13 09:39:30;;;;;;;52.30;32.75;;;;;;;;;;5054654;28;20770;-76
2022/10/13 09:42:18;;;;;;;49.30;30.80;;;;;;;;;;5072304;28;20477;-76
2022/10/13 09:44:45;;;;;;;52.97;32.92;;;;;;;;;;5088078;28;20433;-77
2022/10/13 09:47:20;;;;;;;48.40;29.70;;;13.30;99.90;;;;;;5069461;28;20918;-77
2022/10/13 09:49:57;;;;;;;47.35;29.80;;;;;;;;;;5100997;28;20414;-77
2022/10/13 09:52:24;;;;;;;49.45;28.63;;;;;;;;;;5071309;28;20513;-77
2022/10/13 09:54:57;;;;;;;47.37;29.40;;;13.70;99.90;;;;;;5069782;28;20480;-77
2022/10/13 09:57:42;;;;;;;47.70;30.85;;;;;;;;;;5053642;28;20461;-77
2022/10/13 10:00:12;;;;;;;48.03;29.15;;;;;;;;;;5070949;28;20422;-76
2022/10/13 10:02:49;;;;;;;48.00;29.20;;;;;;;;;;5072683;28;21091;-76
2022/10/13 10:05:17;;;;;;;47.28;28.40;;;13.60;99.90;;;;;;5089969;28;20530;-76
2022/10/13 10:07:44;;;;;;;47.33;28.65;;;13.60;99.90;;;;;;5056488;28;20977;-76
2022/10/13 10:10:22;;;;;;;49.00;30.05;;;;;;;;;;5072557;28;20504;-76
2022/10/13 10:12:48;;;;;;;54.67;33.15;;;;;;;;;;5100807;28;20501;-77
2022/10/13 10:15:28;;;;;;;54.92;33.80;;;13.10;99.90;;;;;;5072953;28;20723;-77
2022/10/13 10:18:03;;;;;;;50.67;34.05;;;;;;;;;;5079592;28;20505;-77
2022/10/13 10:20:47;;;;;;;50.77;34.07;;;;;;;;;;5066856;28;20412;-77
2022/10/13 10:23:36;;;;;;;58.90;36.25;;;;;;;;;;5064368;28;20917;-76
2022/10/13 10:26:10;;;;;;;47.47;32.07;;;13.10;99.90;;;;;;5065137;28;20462;-76
2022/10/13 10:28:47;;;;;;;51.53;33.35;;;13.20;99.90;;;;;;5071323;28;20493;-76
2022/10/13 10:31:47;;;;;;;51.55;33.88;;;13.40;99.90;;;;;;5062984;28;20506;-78
2022/10/13 10:35:04;;;;;;;55.63;35.72;;;13.10;99.90;;;;;;5068341;28;20434;-76
2022/10/13 10:37:33;;;;;;;51.60;31.95;;;;;;;;;;5037032;28;20431;-76
2022/10/13 10:40:24;;;;;;;45.50;30.13;;;13.50;99.90;;;;;;5072449;28;20429;-76
2022/10/13 10:42:58;;;;;;;42.73;29.60;;;13.70;99.90;;;;;;5060527;28;20496;-78
2022/10/13 10:45:26;;;;;;;38.33;27.08;;;;;;;;;;5069060;28;20431;-78
2022/10/13 10:48:18;;;;;;;42.58;28.60;;;13.70;99.90;;;;;;5063803;28;20422;-77
2022/10/13 10:50:45;;;;;;;43.03;27.43;;;13.80;99.90;;;;;;5067867;28;20421;-75
2022/10/13 10:53:31;;;;;;;42.58;29.20;;;;;;;;;;5071645;28;20944;-77
2022/10/13 10:56:02;;;;;;;42.00;27.52;;;;;;;;;;5066937;28;20414;-77
2022/10/13 10:58:39;;;;;;;43.42;28.02;;;;;;;;;;5071484;28;20918;-77
2022/10/13 11:01:07;;;;;;;42.00;27.73;;;;;;;;;;5091157;28;20402;-77
2022/10/13 11:03:48;;;;;;;48.40;29.65;;;;;;;;;;5089138;28;20410;-77
2022/10/13 11:06:17;;;;;;;45.03;29.63;;;;;;;;;;5066536;28;20432;-77
2022/10/13 11:08:45;;;;;;;42.97;28.52;;;;;;;;;;5069337;28;20421;-79
2022/10/13 11:11:24;;;;;;;45.45;28.77;;;;;;;;;;5070984;28;20426;-77
2022/10/13 11:13:50;;;;;;;48.27;30.70;;;;;;;;;;5087267;28;20576;-79
2022/10/13 11:16:34;;;;;;;41.55;28.40;;;14.10;99.90;;;;;;5055518;28;20500;-79
2022/10/13 11:19:04;;;;;;;43.03;27.88;;;;;;;;;;5102610;28;20417;-78
2022/10/13 11:21:58;;;;;;;40.63;27.88;;;13.90;99.90;;;;;;5104694;28;20453;-78
2022/10/13 11:24:37;;;;;;;41.63;27.52;;;;;;;;;;5066944;28;20453;-79
2022/10/13 11:27:16;;;;;;;38.53;27.30;;;;;;;;;;5064909;28;20432;-76
2022/10/13 11:29:45;;;;;;;44.57;28.70;;;14.50;99.90;;;;;;5105252;28;20425;-76
2022/10/13 11:32:40;;;;;;;37.38;27.17;;;;;;;;;;5097516;28;21060;-77
2022/10/13 11:35:09;;;;;;;38.55;26.50;;;;;;;;;;5069457;28;20425;-77
2022/10/13 11:37:53;;;;;;;39.95;27.50;;;;;;;;;;5065459;28;20982;-77
2022/10/13 11:40:30;;;;;;;38.40;26.17;;;14.40;99.90;;;;;;5062336;28;20754;-77
2022/10/13 11:42:57;;;;;;;34.72;25.27;;;;;;;;;;5047087;28;20414;-76
2022/10/13 11:45:26;;;;;;;39.67;26.90;;;;;;;;;;5067213;28;20495;-75
2022/10/13 11:48:00;;;;;;;39.65;28.40;;;;;;;;;;5099692;27;20456;-76
2022/10/13 11:50:32;;;;;;;36.25;26.75;;;;;;;;;;5067436;28;20409;-76
2022/10/13 11:53:07;;;;;;;35.28;26.45;;;;;;;;;;5104846;27;20697;-77
2022/10/13 11:55:39;;;;;;;33.20;24.80;;;;;;;;;;5110575;28;20409;-76
2022/10/13 11:58:17;;;;;;;32.35;25.73;;;14.80;99.90;;;;;;5075163;28;20478;-76
2022/10/13 12:00:52;;;;;;;33.65;24.25;;;;;;;;;;5075681;28;20409;-76
2022/10/13 12:03:38;;;;;;;36.95;24.75;;;;;;;;;;5071384;28;20505;-79
2022/10/13 12:06:06;;;;;;;33.17;23.83;;;14.80;99.90;;;;;;5070568;28;20824;-78
2022/10/13 12:08:35;;;;;;;33.35;23.38;;;14.60;99.90;;;;;;5093248;28;20826;-78
2022/10/13 12:11:06;;;;;;;30.23;22.60;;;14.90;99.90;;;;;;5071483;28;20769;-78
2022/10/13 12:13:33;;;;;;;30.37;23.03;;;14.80;99.90;;;;;;5105005;28;20442;-77
2022/10/13 12:16:05;;;;;;;31.50;23.47;;;14.60;99.90;;;;;;5086030;28;20497;-77
2022/10/13 12:18:35;;;;;;;31.70;23.25;;;14.60;99.90;;;;;;5057599;28;20421;-78
2022/10/13 12:21:08;;;;;;;31.92;24.20;;;14.50;99.90;;;;;;5074893;28;20410;-78
2022/10/13 12:23:34;;;;;;;33.15;24.10;;;14.50;99.90;;;;;;5074406;28;20497;-78
2022/10/13 12:26:00;;;;;;;35.58;25.25;;;14.50;99.90;;;;;;5074197;28;20509;-78
2022/10/13 12:28:45;;;;;;;34.80;23.50;;;14.60;99.90;;;;;;5060579;28;20433;-78
2022/10/13 12:31:26;;;;;;;33.92;23.70;;;14.60;99.90;;;;;;5074042;28;20417;-78
2022/10/13 12:33:56;;;;;;;32.33;23.80;;;;;;;;;;5071010;28;20417;-79
2022/10/13 12:36:27;;;;;;;31.98;23.45;;;;;;;;;;5070555;28;20427;-79
2022/10/13 12:38:56;;;;;;;33.00;24.25;;;14.60;99.90;;;;;;5054683;28;20430;-80
2022/10/13 12:41:26;;;;;;;34.42;23.83;;;14.90;99.90;;;;;;5104364;28;20988;-79
2022/10/13 12:43:53;;;;;;;33.90;24.63;;;;;;;;;;5054538;28;20422;-79
2022/10/13 12:46:35;;;;;;;33.80;23.95;;;;;;;;;;5063637;28;20450;-79
2022/10/13 12:49:12;;;;;;;33.67;23.92;;;;;;;;;;5053232;28;20416;-78
2022/10/13 12:51:38;;;;;;;33.28;24.02;;;;;;;;;;5067492;28;20496;-79
2022/10/13 12:54:27;;;;;;;32.08;23.77;;;14.70;99.90;;;;;;5070977;28;20423;-79
2022/10/13 12:56:55;;;;;;;32.40;22.97;;;;;;;;;;5066150;28;20473;-78
2022/10/13 12:59:22;;;;;;;34.63;23.90;;;;;;;;;;5066747;28;20430;-78
2022/10/13 13:01:59;;;;;;;35.47;24.98;;;14.70;99.90;;;;;;5066787;28;20424;-78
2022/10/13 13:04:30;;;;;;;37.50;24.13;;;;;;;;;;5070062;28;20428;-78
2022/10/13 13:06:58;;;;;;;35.47;25.33;;;14.50;99.90;;;;;;5062480;28;20420;-79
2022/10/13 13:09:27;;;;;;;32.85;24.10;;;;;;;;;;5061598;28;20416;-78
2022/10/13 13:12:05;;;;;;;34.75;24.50;;;;;;;;;;5061218;28;20419;-79
2022/10/13 13:14:38;;;;;;;37.22;25.40;;;14.60;99.90;;;;;;5053722;28;20430;-79
2022/10/13 13:17:11;;;;;;;34.22;24.10;;;;;;;;;;5050244;28;20514;-78
2022/10/13 13:19:41;;;;;;;37.78;26.08;;;;;;;;;;5064341;28;20434;-78
2022/10/13 13:22:07;;;;;;;36.70;25.65;;;;;;;;;;5050950;28;20463;-78
2022/10/13 13:24:34;;;;;;;41.00;27.50;;;;;;;;;;5070692;28;20472;-78
2022/10/13 13:27:20;;;;;;;37.85;27.27;;;14.60;99.90;;;;;;5069017;28;20760;-79
2022/10/13 13:29:46;;;;;;;39.25;27.30;;;;;;;;;;5070644;28;20907;-79
2022/10/13 13:32:14;;;;;;;39.53;27.42;;;;;;;;;;5052568;28;20419;-79
2022/10/13 13:34:40;;;;;;;37.58;26.95;;;;;;;;;;5053321;28;20426;-79
2022/10/13 13:37:09;;;;;;;39.58;26.80;;;;;;;;;;5063855;28;20489;-79
2022/10/13 13:39:35;;;;;;;40.17;25.83;;;;;;;;;;5064436;28;21810;-79
2022/10/13 13:42:01;;;;;;;36.25;25.92;;;;;;;;;;5065041;28;20419;-77
2022/10/13 13:44:26;;;;;;;34.95;25.65;;;14.90;99.90;;;;;;5068909;28;20529;-78
2022/10/13 13:46:52;;;;;;;39.92;27.35;;;15.00;99.90;;;;;;5070250;28;20508;-77
2022/10/13 13:49:18;;;;;;;42.13;28.13;;;;;;;;;;5037128;28;20767;-78
2022/10/13 13:51:44;;;;;;;38.30;28.05;;;15.00;99.90;;;;;;5072417;28;20410;-78
2022/10/13 13:54:09;;;;;;;38.40;27.23;;;15.10;99.90;;;;;;5050284;28;20830;-81
2022/10/13 13:56:35;;;;;;;33.85;24.45;;;14.90;99.90;;;;;;5085932;28;20422;-79
2022/10/13 13:59:01;;;;;;;33.70;23.60;;;;;;;;;;5068187;28;20440;-79
2022/10/13 14:01:27;;;;;;;40.72;28.63;;;;;;;;;;5071779;28;20425;-79
2022/10/13 14:03:53;;;;;;;31.80;23.02;;;;;;;;;;5055239;28;20425;-77